Аэропорт: Черновцы. Черновцы

ICAO: UKLN

METAR:
2019-07-24 01:00:00
UKLN 240100Z 30005MPS 270V340 CAVOK 17/15 Q1017 R33/09//70 NOSIG
METAR:
2019-07-23 23:13:00
TAF UKLN 232313Z 2400/2409 31006MPS 9999 SCT040 TEMPO 2405/2409 SCT033CB